sensor_id;sensor_type;location;lat;lon;timestamp;pressure;altitude;pressure_sealevel;temperature;humidity
40315;BME280;26021;45.640;11.302;2023-07-16T00:00:50;98723.91;;;24.03;100.00
40315;BME280;26021;45.640;11.302;2023-07-16T00:03:15;98717.63;;;24.03;100.00
40315;BME280;26021;45.640;11.302;2023-07-16T00:05:41;98649.88;;;23.48;100.00
40315;BME280;26021;45.640;11.302;2023-07-16T00:08:06;98713.25;;;24.02;100.00
40315;BME280;26021;45.640;11.302;2023-07-16T00:10:35;98696.00;;;23.91;100.00
40315;BME280;26021;45.640;11.302;2023-07-16T00:13:02;98709.00;;;23.74;100.00
40315;BME280;26021;45.640;11.302;2023-07-16T00:15:28;98715.09;;;23.91;100.00
40315;BME280;26021;45.640;11.302;2023-07-16T00:17:54;98677.00;;;23.64;100.00
40315;BME280;26021;45.640;11.302;2023-07-16T00:20:20;98622.19;;;23.24;100.00
40315;BME280;26021;45.640;11.302;2023-07-16T00:22:46;98713.75;;;23.94;100.00
40315;BME280;26021;45.640;11.302;2023-07-16T00:25:12;98673.19;;;23.70;100.00
40315;BME280;26021;45.640;11.302;2023-07-16T00:27:37;98717.28;;;23.89;100.00
40315;BME280;26021;45.640;11.302;2023-07-16T00:30:03;98712.69;;;24.00;100.00
40315;BME280;26021;45.640;11.302;2023-07-16T00:35:13;98705.88;;;24.07;100.00
40315;BME280;26021;45.640;11.302;2023-07-16T00:37:38;98712.09;;;23.88;100.00
40315;BME280;26021;45.640;11.302;2023-07-16T00:40:04;98713.47;;;23.90;100.00
40315;BME280;26021;45.640;11.302;2023-07-16T00:42:30;98670.06;;;23.46;100.00
40315;BME280;26021;45.640;11.302;2023-07-16T00:44:55;98711.44;;;23.70;100.00
40315;BME280;26021;45.640;11.302;2023-07-16T00:47:21;98712.59;;;23.80;100.00
40315;BME280;26021;45.640;11.302;2023-07-16T00:49:47;98705.69;;;23.72;100.00
40315;BME280;26021;45.640;11.302;2023-07-16T00:52:16;98707.03;;;23.64;100.00
40315;BME280;26021;45.640;11.302;2023-07-16T00:54:43;98598.50;;;22.92;100.00
40315;BME280;26021;45.640;11.302;2023-07-16T00:57:09;98656.28;;;23.26;100.00
40315;BME280;26021;45.640;11.302;2023-07-16T00:59:34;98706.19;;;23.59;100.00
40315;BME280;26021;45.640;11.302;2023-07-16T01:01:59;98651.38;;;23.23;100.00
40315;BME280;26021;45.640;11.302;2023-07-16T01:04:25;98702.66;;;23.63;100.00
40315;BME280;26021;45.640;11.302;2023-07-16T01:06:53;98695.56;;;23.62;100.00
40315;BME280;26021;45.640;11.302;2023-07-16T01:09:21;98707.06;;;23.69;100.00
40315;BME280;26021;45.640;11.302;2023-07-16T01:11:48;98703.41;;;23.54;100.00
40315;BME280;26021;45.640;11.302;2023-07-16T01:14:16;98696.81;;;23.50;100.00
40315;BME280;26021;45.640;11.302;2023-07-16T01:16:41;98691.09;;;23.51;100.00
40315;BME280;26021;45.640;11.302;2023-07-16T01:19:08;98696.94;;;23.65;100.00
40315;BME280;26021;45.640;11.302;2023-07-16T01:21:50;98691.72;;;23.58;100.00
40315;BME280;26021;45.640;11.302;2023-07-16T01:29:49;98673.59;;;23.47;100.00
40315;BME280;26021;45.640;11.302;2023-07-16T01:32:16;98688.84;;;23.38;100.00
40315;BME280;26021;45.640;11.302;2023-07-16T01:34:43;98675.47;;;23.41;100.00
40315;BME280;26021;45.640;11.302;2023-07-16T01:37:09;98677.94;;;23.43;100.00
40315;BME280;26021;45.640;11.302;2023-07-16T01:39:34;98676.31;;;23.42;100.00
40315;BME280;26021;45.640;11.302;2023-07-16T01:42:01;98679.59;;;23.44;100.00
40315;BME280;26021;45.640;11.302;2023-07-16T01:44:26;98671.16;;;23.51;100.00
40315;BME280;26021;45.640;11.302;2023-07-16T01:47:45;98677.66;;;23.39;100.00
40315;BME280;26021;45.640;11.302;2023-07-16T01:49:49;98671.41;;;23.44;100.00
40315;BME280;26021;45.640;11.302;2023-07-16T01:52:15;98670.22;;;23.30;100.00
40315;BME280;26021;45.640;11.302;2023-07-16T01:54:40;98670.56;;;23.38;100.00
40315;BME280;26021;45.640;11.302;2023-07-16T01:57:06;98669.16;;;23.31;100.00
40315;BME280;26021;45.640;11.302;2023-07-16T01:59:32;98661.56;;;23.43;100.00
40315;BME280;26021;45.640;11.302;2023-07-16T02:01:57;98663.66;;;23.26;100.00
40315;BME280;26021;45.640;11.302;2023-07-16T02:04:22;98662.88;;;23.30;100.00
40315;BME280;26021;45.640;11.302;2023-07-16T02:06:48;98660.16;;;23.35;100.00
40315;BME280;26021;45.640;11.302;2023-07-16T02:09:13;98663.09;;;23.24;100.00
40315;BME280;26021;45.640;11.302;2023-07-16T02:11:39;98662.50;;;23.17;100.00
40315;BME280;26021;45.640;11.302;2023-07-16T02:14:04;98607.44;;;22.82;100.00
40315;BME280;26021;45.640;11.302;2023-07-16T02:16:30;98655.09;;;23.07;100.00
40315;BME280;26021;45.640;11.302;2023-07-16T02:18:56;98655.69;;;23.14;100.00
40315;BME280;26021;45.640;11.302;2023-07-16T02:21:21;98654.81;;;23.08;100.00
40315;BME280;26021;45.640;11.302;2023-07-16T02:23:47;98654.81;;;23.08;100.00
40315;BME280;26021;45.640;11.302;2023-07-16T02:26:12;98651.47;;;23.01;100.00
40315;BME280;26021;45.640;11.302;2023-07-16T02:28:38;98652.91;;;23.09;100.00
40315;BME280;26021;45.640;11.302;2023-07-16T02:31:04;98655.34;;;23.05;100.00
40315;BME280;26021;45.640;11.302;2023-07-16T02:33:30;98655.78;;;22.92;100.00
40315;BME280;26021;45.640;11.302;2023-07-16T02:35:55;98654.97;;;22.97;100.00
40315;BME280;26021;45.640;11.302;2023-07-16T02:38:21;98651.91;;;22.88;100.00
40315;BME280;26021;45.640;11.302;2023-07-16T02:40:47;98652.00;;;22.98;100.00
40315;BME280;26021;45.640;11.302;2023-07-16T02:43:14;98645.19;;;23.01;100.00
40315;BME280;26021;45.640;11.302;2023-07-16T02:45:40;98641.63;;;23.00;100.00
40315;BME280;26021;45.640;11.302;2023-07-16T02:48:06;98655.13;;;23.12;100.00
40315;BME280;26021;45.640;11.302;2023-07-16T02:50:35;98640.34;;;23.08;100.00
40315;BME280;26021;45.640;11.302;2023-07-16T02:53:02;98655.38;;;23.10;100.00
40315;BME280;26021;45.640;11.302;2023-07-16T02:55:28;98628.91;;;22.79;100.00
40315;BME280;26021;45.640;11.302;2023-07-16T02:57:54;98656.06;;;22.96;100.00
40315;BME280;26021;45.640;11.302;2023-07-16T03:00:19;98657.72;;;22.97;100.00
40315;BME280;26021;45.640;11.302;2023-07-16T03:02:45;98661.06;;;23.04;100.00
40315;BME280;26021;45.640;11.302;2023-07-16T03:05:10;98646.44;;;22.83;100.00
40315;BME280;26021;45.640;11.302;2023-07-16T03:07:35;98663.69;;;22.94;100.00
40315;BME280;26021;45.640;11.302;2023-07-16T03:10:01;98589.13;;;22.46;100.00
40315;BME280;26021;45.640;11.302;2023-07-16T03:12:26;98657.22;;;22.73;100.00
40315;BME280;26021;45.640;11.302;2023-07-16T03:14:52;98664.06;;;22.75;100.00
40315;BME280;26021;45.640;11.302;2023-07-16T03:17:20;98598.56;;;22.33;100.00
40315;BME280;26021;45.640;11.302;2023-07-16T03:19:47;98665.03;;;22.91;100.00
40315;BME280;26021;45.640;11.302;2023-07-16T03:22:13;98632.66;;;22.68;100.00
40315;BME280;26021;45.640;11.302;2023-07-16T03:24:38;98661.72;;;22.84;100.00
40315;BME280;26021;45.640;11.302;2023-07-16T03:27:04;98605.69;;;22.39;100.00
40315;BME280;26021;45.640;11.302;2023-07-16T03:29:29;98663.50;;;22.73;100.00
40315;BME280;26021;45.640;11.302;2023-07-16T03:31:55;98658.53;;;22.65;100.00
40315;BME280;26021;45.640;11.302;2023-07-16T03:34:20;98661.16;;;22.55;100.00
40315;BME280;26021;45.640;11.302;2023-07-16T03:36:46;98659.78;;;22.52;100.00
40315;BME280;26021;45.640;11.302;2023-07-16T03:39:12;98659.66;;;22.69;100.00
40315;BME280;26021;45.640;11.302;2023-07-16T03:41:37;98656.97;;;22.74;100.00
40315;BME280;26021;45.640;11.302;2023-07-16T03:44:03;98666.34;;;22.57;100.00
40315;BME280;26021;45.640;11.302;2023-07-16T03:46:28;98670.69;;;22.52;100.00
40315;BME280;26021;45.640;11.302;2023-07-16T03:48:54;98665.75;;;22.49;100.00
40315;BME280;26021;45.640;11.302;2023-07-16T03:51:19;98675.25;;;22.47;100.00
40315;BME280;26021;45.640;11.302;2023-07-16T03:53:45;98672.41;;;22.64;100.00
40315;BME280;26021;45.640;11.302;2023-07-16T03:56:10;98627.19;;;22.36;100.00
40315;BME280;26021;45.640;11.302;2023-07-16T03:58:36;98669.94;;;22.62;100.00
40315;BME280;26021;45.640;11.302;2023-07-16T04:01:01;98632.44;;;22.42;100.00
40315;BME280;26021;45.640;11.302;2023-07-16T04:03:27;98679.03;;;22.73;100.00
40315;BME280;26021;45.640;11.302;2023-07-16T04:06:01;98677.69;;;22.75;100.00
40315;BME280;26021;45.640;11.302;2023-07-16T04:08:26;98677.31;;;22.62;100.00
40315;BME280;26021;45.640;11.302;2023-07-16T04:10:52;98671.25;;;22.55;100.00
40315;BME280;26021;45.640;11.302;2023-07-16T04:13:17;98676.47;;;22.61;100.00
40315;BME280;26021;45.640;11.302;2023-07-16T04:15:43;98661.97;;;22.82;100.00
40315;BME280;26021;45.640;11.302;2023-07-16T04:18:08;98682.44;;;22.85;100.00
40315;BME280;26021;45.640;11.302;2023-07-16T04:20:33;98680.88;;;22.94;100.00
40315;BME280;26021;45.640;11.302;2023-07-16T04:22:59;98628.94;;;22.47;100.00
40315;BME280;26021;45.640;11.302;2023-07-16T04:25:24;98664.78;;;22.66;100.00
40315;BME280;26021;45.640;11.302;2023-07-16T04:27:50;98692.91;;;22.71;100.00
40315;BME280;26021;45.640;11.302;2023-07-16T04:30:15;98698.94;;;22.73;100.00
40315;BME280;26021;45.640;11.302;2023-07-16T04:32:41;98669.72;;;22.69;100.00
40315;BME280;26021;45.640;11.302;2023-07-16T04:35:07;98694.28;;;23.01;100.00
40315;BME280;26021;45.640;11.302;2023-07-16T04:37:32;98701.31;;;22.92;100.00
40315;BME280;26021;45.640;11.302;2023-07-16T04:39:58;98698.53;;;22.87;100.00
40315;BME280;26021;45.640;11.302;2023-07-16T04:42:23;98707.28;;;22.89;100.00
40315;BME280;26021;45.640;11.302;2023-07-16T04:44:49;98704.19;;;23.07;100.00
40315;BME280;26021;45.640;11.302;2023-07-16T04:47:14;98709.19;;;23.20;100.00
40315;BME280;26021;45.640;11.302;2023-07-16T04:49:40;98674.78;;;22.82;100.00
40315;BME280;26021;45.640;11.302;2023-07-16T04:52:06;98706.91;;;23.07;100.00
40315;BME280;26021;45.640;11.302;2023-07-16T04:54:36;98711.94;;;23.25;100.00
40315;BME280;26021;45.640;11.302;2023-07-16T04:57:02;98719.41;;;23.40;100.00
40315;BME280;26021;45.640;11.302;2023-07-16T04:59:27;98714.81;;;23.45;100.00
40315;BME280;26021;45.640;11.302;2023-07-16T05:01:53;98719.78;;;23.54;100.00
40315;BME280;26021;45.640;11.302;2023-07-16T05:04:18;98702.91;;;23.62;100.00
40315;BME280;26021;45.640;11.302;2023-07-16T05:06:44;98721.25;;;23.66;100.00
40315;BME280;26021;45.640;11.302;2023-07-16T05:09:09;98715.25;;;23.69;100.00
40315;BME280;26021;45.640;11.302;2023-07-16T05:11:35;98714.25;;;23.86;100.00
40315;BME280;26021;45.640;11.302;2023-07-16T05:14:02;98706.38;;;23.94;100.00
40315;BME280;26021;45.640;11.302;2023-07-16T05:16:28;98718.47;;;24.14;100.00
40315;BME280;26021;45.640;11.302;2023-07-16T05:18:53;98695.75;;;23.98;100.00
40315;BME280;26021;45.640;11.302;2023-07-16T05:21:19;98714.38;;;24.16;100.00
40315;BME280;26021;45.640;11.302;2023-07-16T05:23:44;98674.22;;;24.17;100.00
40315;BME280;26021;45.640;11.302;2023-07-16T05:26:09;98711.72;;;24.31;100.00
40315;BME280;26021;45.640;11.302;2023-07-16T05:28:35;98711.81;;;24.62;100.00
40315;BME280;26021;45.640;11.302;2023-07-16T05:31:02;98713.75;;;24.77;100.00
40315;BME280;26021;45.640;11.302;2023-07-16T05:33:28;98709.09;;;24.67;100.00
40315;BME280;26021;45.640;11.302;2023-07-16T05:35:54;98712.91;;;24.66;100.00
40315;BME280;26021;45.640;11.302;2023-07-16T05:38:19;98688.31;;;24.76;100.00
40315;BME280;26021;45.640;11.302;2023-07-16T05:40:45;98717.06;;;25.19;100.00
40315;BME280;26021;45.640;11.302;2023-07-16T05:43:10;98715.44;;;25.28;100.00
40315;BME280;26021;45.640;11.302;2023-07-16T05:45:36;98717.03;;;25.50;100.00
40315;BME280;26021;45.640;11.302;2023-07-16T05:48:02;98730.41;;;25.77;100.00
40315;BME280;26021;45.640;11.302;2023-07-16T05:50:29;98706.63;;;25.52;100.00
40315;BME280;26021;45.640;11.302;2023-07-16T05:52:54;98600.50;;;24.78;100.00
40315;BME280;26021;45.640;11.302;2023-07-16T05:55:20;98693.25;;;25.10;100.00
40315;BME280;26021;45.640;11.302;2023-07-16T05:57:45;98726.88;;;25.61;100.00
40315;BME280;26021;45.640;11.302;2023-07-16T06:00:12;98732.59;;;25.75;100.00
40315;BME280;26021;45.640;11.302;2023-07-16T06:02:38;98725.41;;;25.99;100.00
40315;BME280;26021;45.640;11.302;2023-07-16T06:05:05;98729.19;;;26.18;100.00
40315;BME280;26021;45.640;11.302;2023-07-16T06:07:30;98736.63;;;26.08;100.00
40315;BME280;26021;45.640;11.302;2023-07-16T06:09:57;98690.91;;;25.93;100.00
40315;BME280;26021;45.640;11.302;2023-07-16T06:12:22;98736.19;;;26.45;100.00
40315;BME280;26021;45.640;11.302;2023-07-16T06:14:48;98730.59;;;26.65;100.00
40315;BME280;26021;45.640;11.302;2023-07-16T06:17:13;98746.91;;;26.90;100.00
40315;BME280;26021;45.640;11.302;2023-07-16T06:19:38;98709.06;;;26.87;100.00
40315;BME280;26021;45.640;11.302;2023-07-16T06:22:04;98748.38;;;27.17;100.00
40315;BME280;26021;45.640;11.302;2023-07-16T06:24:30;98742.97;;;27.36;100.00
40315;BME280;26021;45.640;11.302;2023-07-16T06:26:55;98709.84;;;27.56;100.00
40315;BME280;26021;45.640;11.302;2023-07-16T06:29:20;98750.06;;;27.76;100.00
40315;BME280;26021;45.640;11.302;2023-07-16T06:31:56;98751.78;;;27.33;100.00
40315;BME280;26021;45.640;11.302;2023-07-16T06:34:22;98628.31;;;26.59;100.00
40315;BME280;26021;45.640;11.302;2023-07-16T06:36:48;98757.78;;;27.40;100.00
40315;BME280;26021;45.640;11.302;2023-07-16T06:39:13;98740.03;;;27.27;100.00
40315;BME280;26021;45.640;11.302;2023-07-16T06:41:39;98744.22;;;27.48;100.00
40315;BME280;26021;45.640;11.302;2023-07-16T06:44:04;98755.50;;;28.05;100.00
40315;BME280;26021;45.640;11.302;2023-07-16T06:46:30;98743.09;;;28.07;100.00
40315;BME280;26021;45.640;11.302;2023-07-16T06:48:55;98728.91;;;28.24;100.00
40315;BME280;26021;45.640;11.302;2023-07-16T06:51:21;98761.72;;;28.58;100.00
40315;BME280;26021;45.640;11.302;2023-07-16T06:53:47;98729.06;;;28.70;100.00
40315;BME280;26021;45.640;11.302;2023-07-16T06:56:12;98754.31;;;28.96;99.39
40315;BME280;26021;45.640;11.302;2023-07-16T06:58:38;98752.22;;;29.07;97.79
40315;BME280;26021;45.640;11.302;2023-07-16T07:01:03;98760.84;;;29.19;97.57
40315;BME280;26021;45.640;11.302;2023-07-16T07:03:29;98752.41;;;29.29;97.09
40315;BME280;26021;45.640;11.302;2023-07-16T07:05:54;98755.84;;;29.21;99.09
40315;BME280;26021;45.640;11.302;2023-07-16T07:08:20;98761.16;;;29.18;99.55
40315;BME280;26021;45.640;11.302;2023-07-16T07:10:48;98750.56;;;29.25;100.00
40315;BME280;26021;45.640;11.302;2023-07-16T07:13:13;98735.34;;;29.14;99.85
40315;BME280;26021;45.640;11.302;2023-07-16T07:15:39;98563.13;;;28.00;100.00
40315;BME280;26021;45.640;11.302;2023-07-16T07:18:04;98738.78;;;29.05;100.00
40315;BME280;26021;45.640;11.302;2023-07-16T07:20:30;98704.22;;;29.13;100.00
40315;BME280;26021;45.640;11.302;2023-07-16T07:22:55;98748.06;;;29.42;100.00
40315;BME280;26021;45.640;11.302;2023-07-16T07:25:21;98746.38;;;29.27;100.00
40315;BME280;26021;45.640;11.302;2023-07-16T07:27:46;98746.97;;;29.43;100.00
40315;BME280;26021;45.640;11.302;2023-07-16T07:30:12;98747.19;;;29.28;100.00
40315;BME280;26021;45.640;11.302;2023-07-16T07:32:37;98749.56;;;29.34;100.00
40315;BME280;26021;45.640;11.302;2023-07-16T07:35:04;98714.44;;;28.94;100.00
40315;BME280;26021;45.640;11.302;2023-07-16T07:37:30;98748.50;;;29.17;100.00
40315;BME280;26021;45.640;11.302;2023-07-16T07:39:55;98746.50;;;29.36;100.00
40315;BME280;26021;45.640;11.302;2023-07-16T07:42:24;98747.41;;;29.31;97.78
40315;BME280;26021;45.640;11.302;2023-07-16T07:44:50;98718.94;;;29.22;100.00
40315;BME280;26021;45.640;11.302;2023-07-16T07:47:15;98731.53;;;29.09;99.89
40315;BME280;26021;45.640;11.302;2023-07-16T07:49:42;98749.28;;;29.36;100.00
40315;BME280;26021;45.640;11.302;2023-07-16T07:52:07;98741.59;;;29.33;98.68
40315;BME280;26021;45.640;11.302;2023-07-16T07:54:33;98727.50;;;29.21;96.56
40315;BME280;26021;45.640;11.302;2023-07-16T07:57:00;98743.41;;;29.56;95.51
40315;BME280;26021;45.640;11.302;2023-07-16T07:59:27;98753.47;;;29.80;94.84
40315;BME280;26021;45.640;11.302;2023-07-16T08:01:52;98747.50;;;29.59;96.36
40315;BME280;26021;45.640;11.302;2023-07-16T08:04:18;98762.81;;;29.65;95.40
40315;BME280;26021;45.640;11.302;2023-07-16T08:06:43;98754.25;;;29.66;96.54
40315;BME280;26021;45.640;11.302;2023-07-16T08:09:09;98752.72;;;29.60;95.25
40315;BME280;26021;45.640;11.302;2023-07-16T08:11:34;98757.09;;;29.48;98.28
40315;BME280;26021;45.640;11.302;2023-07-16T08:14:00;98754.63;;;29.46;97.78
40315;BME280;26021;45.640;11.302;2023-07-16T08:16:25;98721.09;;;29.25;99.10
40315;BME280;26021;45.640;11.302;2023-07-16T08:18:50;98744.94;;;29.16;100.00
40315;BME280;26021;45.640;11.302;2023-07-16T08:21:16;98749.56;;;29.34;98.58
40315;BME280;26021;45.640;11.302;2023-07-16T08:23:49;98753.00;;;29.45;96.08
40315;BME280;26021;45.640;11.302;2023-07-16T08:26:16;98756.59;;;29.59;96.82
40315;BME280;26021;45.640;11.302;2023-07-16T08:28:41;98757.47;;;29.73;93.61
40315;BME280;26021;45.640;11.302;2023-07-16T08:31:07;98734.91;;;29.85;93.95
40315;BME280;26021;45.640;11.302;2023-07-16T08:33:33;98709.34;;;29.20;96.85
40315;BME280;26021;45.640;11.302;2023-07-16T08:35:58;98749.41;;;29.45;95.70
40315;BME280;26021;45.640;11.302;2023-07-16T08:38:24;98761.19;;;29.64;96.10
40315;BME280;26021;45.640;11.302;2023-07-16T08:40:50;98761.69;;;29.52;94.47
40315;BME280;26021;45.640;11.302;2023-07-16T08:43:16;98765.19;;;29.71;95.17
40315;BME280;26021;45.640;11.302;2023-07-16T08:45:41;98764.72;;;29.97;94.48
40315;BME280;26021;45.640;11.302;2023-07-16T08:48:11;98764.84;;;30.06;93.32
40315;BME280;26021;45.640;11.302;2023-07-16T08:50:37;98769.16;;;30.12;93.88
40315;BME280;26021;45.640;11.302;2023-07-16T08:53:06;98763.91;;;29.96;95.84
40315;BME280;26021;45.640;11.302;2023-07-16T08:55:33;98756.38;;;30.16;93.00
40315;BME280;26021;45.640;11.302;2023-07-16T08:58:00;98766.16;;;30.35;93.20
40315;BME280;26021;45.640;11.302;2023-07-16T09:00:26;98762.81;;;30.25;90.36
40315;BME280;26021;45.640;11.302;2023-07-16T09:02:52;98713.47;;;29.96;92.21
40315;BME280;26021;45.640;11.302;2023-07-16T09:05:22;98754.84;;;30.23;92.16
40315;BME280;26021;45.640;11.302;2023-07-16T09:07:48;98770.88;;;30.35;98.76
40315;BME280;26021;45.640;11.302;2023-07-16T09:10:14;98772.19;;;30.38;93.07
40315;BME280;26021;45.640;11.302;2023-07-16T09:12:43;98769.81;;;30.45;94.05
40315;BME280;26021;45.640;11.302;2023-07-16T09:15:10;98765.88;;;30.51;94.66
40315;BME280;26021;45.640;11.302;2023-07-16T09:17:36;98759.09;;;30.43;93.37
40315;BME280;26021;45.640;11.302;2023-07-16T09:20:03;98764.19;;;30.77;91.61
40315;BME280;26021;45.640;11.302;2023-07-16T09:22:29;98769.31;;;30.56;94.52
40315;BME280;26021;45.640;11.302;2023-07-16T09:24:55;98759.50;;;30.78;91.21
40315;BME280;26021;45.640;11.302;2023-07-16T09:27:28;98768.66;;;30.87;91.03
40315;BME280;26021;45.640;11.302;2023-07-16T09:29:54;98763.91;;;31.01;90.22
40315;BME280;26021;45.640;11.302;2023-07-16T09:32:19;98761.41;;;31.13;90.08
40315;BME280;26021;45.640;11.302;2023-07-16T09:34:45;98765.00;;;30.78;91.21
40315;BME280;26021;45.640;11.302;2023-07-16T09:37:14;98766.72;;;30.87;91.38
40315;BME280;26021;45.640;11.302;2023-07-16T09:39:39;98754.91;;;30.46;94.08
40315;BME280;26021;45.640;11.302;2023-07-16T09:42:06;98764.88;;;30.83;92.02
40315;BME280;26021;45.640;11.302;2023-07-16T09:44:33;98765.03;;;30.50;94.28
40315;BME280;26021;45.640;11.302;2023-07-16T09:46:59;98730.59;;;30.34;93.42
40315;BME280;26021;45.640;11.302;2023-07-16T09:49:28;98762.19;;;30.55;92.51
40315;BME280;26021;45.640;11.302;2023-07-16T09:51:58;98759.22;;;30.24;94.48
40315;BME280;26021;45.640;11.302;2023-07-16T09:54:31;98768.63;;;30.51;93.81
40315;BME280;26021;45.640;11.302;2023-07-16T09:56:58;98773.53;;;30.67;94.29
40315;BME280;26021;45.640;11.302;2023-07-16T09:59:29;98770.69;;;30.59;91.65
40315;BME280;26021;45.640;11.302;2023-07-16T10:01:56;98706.50;;;29.98;93.58
40315;BME280;26021;45.640;11.302;2023-07-16T10:04:22;98766.56;;;30.70;92.75
40315;BME280;26021;45.640;11.302;2023-07-16T10:09:51;98769.09;;;30.80;91.91
40315;BME280;26021;45.640;11.302;2023-07-16T10:12:19;98768.53;;;30.92;92.04
40315;BME280;26021;45.640;11.302;2023-07-16T10:14:46;98762.84;;;31.11;90.86
40315;BME280;26021;45.640;11.302;2023-07-16T10:17:21;98765.97;;;31.32;88.29
40315;BME280;26021;45.640;11.302;2023-07-16T10:19:48;98766.66;;;31.01;90.65
40315;BME280;26021;45.640;11.302;2023-07-16T10:22:14;98767.13;;;31.17;89.85
40315;BME280;26021;45.640;11.302;2023-07-16T10:24:40;98763.22;;;31.32;87.39
40315;BME280;26021;45.640;11.302;2023-07-16T10:27:06;98730.50;;;31.25;89.34
40315;BME280;26021;45.640;11.302;2023-07-16T10:29:31;98755.59;;;31.15;89.66
40315;BME280;26021;45.640;11.302;2023-07-16T10:31:58;98758.09;;;31.47;86.73
40315;BME280;26021;45.640;11.302;2023-07-16T10:34:24;98745.28;;;31.51;84.38
40315;BME280;26021;45.640;11.302;2023-07-16T10:36:51;98756.44;;;31.69;85.34
40315;BME280;26021;45.640;11.302;2023-07-16T10:39:16;98727.09;;;31.59;86.31
40315;BME280;26021;45.640;11.302;2023-07-16T10:41:42;98725.47;;;31.58;83.03
40315;BME280;26021;45.640;11.302;2023-07-16T10:44:08;98748.53;;;31.53;83.55
40315;BME280;26021;45.640;11.302;2023-07-16T10:46:34;98743.41;;;31.69;84.54
40315;BME280;26021;45.640;11.302;2023-07-16T10:48:59;98744.94;;;31.75;82.47
40315;BME280;26021;45.640;11.302;2023-07-16T10:51:26;98734.50;;;31.41;83.03
40315;BME280;26021;45.640;11.302;2023-07-16T10:53:57;98740.53;;;31.43;87.60
40315;BME280;26021;45.640;11.302;2023-07-16T10:56:23;98748.03;;;31.74;84.78
40315;BME280;26021;45.640;11.302;2023-07-16T10:58:49;98744.50;;;31.82;83.56
40315;BME280;26021;45.640;11.302;2023-07-16T11:01:15;98750.63;;;32.10;84.58
40315;BME280;26021;45.640;11.302;2023-07-16T11:03:40;98755.00;;;32.02;83.43
40315;BME280;26021;45.640;11.302;2023-07-16T11:06:10;98749.69;;;32.14;81.93
40315;BME280;26021;45.640;11.302;2023-07-16T11:08:37;98749.41;;;32.25;81.50
40315;BME280;26021;45.640;11.302;2023-07-16T11:11:02;98756.25;;;32.27;81.14
40315;BME280;26021;45.640;11.302;2023-07-16T11:13:31;98748.22;;;32.17;78.56
40315;BME280;26021;45.640;11.302;2023-07-16T11:16:06;98749.50;;;32.11;80.44
40315;BME280;26021;45.640;11.302;2023-07-16T11:18:32;98742.19;;;32.15;80.08
40315;BME280;26021;45.640;11.302;2023-07-16T11:20:59;98698.50;;;31.95;81.06
40315;BME280;26021;45.640;11.302;2023-07-16T11:23:24;98679.91;;;31.78;81.53
40315;BME280;26021;45.640;11.302;2023-07-16T11:25:52;98741.53;;;32.18;78.92
40315;BME280;26021;45.640;11.302;2023-07-16T11:28:17;98747.13;;;32.27;78.90
40315;BME280;26021;45.640;11.302;2023-07-16T11:30:43;98741.13;;;32.33;79.27
40315;BME280;26021;45.640;11.302;2023-07-16T11:33:12;98752.28;;;32.19;77.58
40315;BME280;26021;45.640;11.302;2023-07-16T11:35:38;98740.44;;;31.88;77.43
40315;BME280;26021;45.640;11.302;2023-07-16T11:38:05;98737.66;;;32.19;78.81
40315;BME280;26021;45.640;11.302;2023-07-16T11:40:33;98731.53;;;32.39;74.26
40315;BME280;26021;45.640;11.302;2023-07-16T11:43:10;98727.16;;;32.47;71.84
40315;BME280;26021;45.640;11.302;2023-07-16T11:45:36;98724.38;;;32.47;72.67
40315;BME280;26021;45.640;11.302;2023-07-16T11:48:02;98740.50;;;32.62;73.63
40315;BME280;26021;45.640;11.302;2023-07-16T11:50:28;98735.31;;;32.61;71.51
40315;BME280;26021;45.640;11.302;2023-07-16T11:52:55;98723.84;;;32.28;71.93
40315;BME280;26021;45.640;11.302;2023-07-16T11:55:21;98737.13;;;32.08;72.05
40315;BME280;26021;45.640;11.302;2023-07-16T11:57:47;98715.69;;;32.22;71.63
40315;BME280;26021;45.640;11.302;2023-07-16T12:00:12;98729.06;;;32.29;73.94
40315;BME280;26021;45.640;11.302;2023-07-16T12:02:38;98723.88;;;32.45;70.54
40315;BME280;26021;45.640;11.302;2023-07-16T12:05:04;98705.78;;;32.30;70.36
40315;BME280;26021;45.640;11.302;2023-07-16T12:07:36;98730.25;;;32.63;71.24
40315;BME280;26021;45.640;11.302;2023-07-16T12:10:03;98723.47;;;32.86;68.43
40315;BME280;26021;45.640;11.302;2023-07-16T12:12:29;98725.25;;;33.08;66.78
40315;BME280;26021;45.640;11.302;2023-07-16T12:14:54;98724.91;;;33.09;66.16
40315;BME280;26021;45.640;11.302;2023-07-16T12:17:20;98709.28;;;33.05;66.45
40315;BME280;26021;45.640;11.302;2023-07-16T12:19:45;98678.50;;;32.89;64.02
40315;BME280;26021;45.640;11.302;2023-07-16T12:22:11;98713.53;;;32.85;64.82
40315;BME280;26021;45.640;11.302;2023-07-16T12:24:37;98718.06;;;33.07;64.14
40315;BME280;26021;45.640;11.302;2023-07-16T12:27:04;98711.72;;;32.72;62.86
40315;BME280;26021;45.640;11.302;2023-07-16T12:29:29;98717.28;;;32.80;63.15
40315;BME280;26021;45.640;11.302;2023-07-16T12:31:55;98713.53;;;33.02;65.63
40315;BME280;26021;45.640;11.302;2023-07-16T12:34:20;98711.50;;;33.29;61.32
40315;BME280;26021;45.640;11.302;2023-07-16T12:36:46;98710.91;;;33.14;62.20
40315;BME280;26021;45.640;11.302;2023-07-16T12:39:11;98708.13;;;33.32;61.56
40315;BME280;26021;45.640;11.302;2023-07-16T12:41:36;98711.84;;;33.27;60.69
40315;BME280;26021;45.640;11.302;2023-07-16T12:44:02;98712.34;;;33.46;61.65
40315;BME280;26021;45.640;11.302;2023-07-16T12:46:27;98580.28;;;32.78;59.29
40315;BME280;26021;45.640;11.302;2023-07-16T12:48:53;98708.47;;;33.77;60.54
40315;BME280;26021;45.640;11.302;2023-07-16T12:51:18;98660.22;;;33.05;60.25